createdAt,value
2023-08-07T00:02:25.372Z,10.20
2023-08-07T00:04:53.618Z,10.10
2023-08-07T00:07:20.599Z,10.10
2023-08-07T00:09:47.534Z,10.20
2023-08-07T00:12:14.404Z,10.10
2023-08-07T00:14:41.295Z,10.20
2023-08-07T00:17:09.584Z,10.10
2023-08-07T00:19:36.600Z,10.10
2023-08-07T00:22:03.495Z,10.10
2023-08-07T00:24:30.391Z,10.10
2023-08-07T00:26:57.491Z,10.10
2023-08-07T00:29:24.832Z,10.10
2023-08-07T00:31:51.803Z,10.10
2023-08-07T00:34:18.931Z,10.10
2023-08-07T00:36:46.138Z,10.10
2023-08-07T00:39:13.059Z,10.10
2023-08-07T00:41:42.968Z,10.10
2023-08-07T00:44:09.953Z,10.10
2023-08-07T00:46:37.847Z,10.10
2023-08-07T00:49:04.906Z,10.10
2023-08-07T00:51:32.024Z,10.00
2023-08-07T00:53:59.907Z,10.10
2023-08-07T00:56:27.949Z,10.00
2023-08-07T00:58:55.130Z,10.00
2023-08-07T01:01:22.220Z,10.00
2023-08-07T01:03:49.186Z,10.00
2023-08-07T01:06:16.318Z,10.00
2023-08-07T01:08:43.554Z,10.00
2023-08-07T01:11:29.553Z,10.00
2023-08-07T01:14:25.262Z,10.00
2023-08-07T01:16:59.184Z,10.00
2023-08-07T01:19:29.478Z,10.00
2023-08-07T01:22:09.853Z,10.00
2023-08-07T01:24:40.034Z,9.90
2023-08-07T01:27:29.667Z,9.90
2023-08-07T01:30:15.402Z,10.00
2023-08-07T01:32:54.562Z,10.00
2023-08-07T01:35:26.641Z,10.00
2023-08-07T01:37:55.821Z,10.00
2023-08-07T01:40:23.972Z,10.00
2023-08-07T01:42:54.173Z,10.00
2023-08-07T01:45:28.633Z,10.00
2023-08-07T01:47:55.912Z,9.90
2023-08-07T01:50:25.169Z,9.90
2023-08-07T01:52:53.595Z,9.90
2023-08-07T01:55:21.755Z,9.90
2023-08-07T01:57:52.639Z,9.90
2023-08-07T02:00:19.918Z,9.90
2023-08-07T02:02:48.137Z,9.90
2023-08-07T02:05:15.982Z,9.90
2023-08-07T02:07:43.284Z,9.90
2023-08-07T02:10:10.517Z,9.90
2023-08-07T02:12:37.444Z,9.90
2023-08-07T02:15:04.807Z,9.90
2023-08-07T02:17:32.392Z,9.90
2023-08-07T02:19:59.417Z,9.90
2023-08-07T02:22:26.472Z,9.90
2023-08-07T02:24:53.373Z,9.80
2023-08-07T02:27:20.333Z,9.80
2023-08-07T02:29:47.848Z,9.90
2023-08-07T02:32:14.927Z,9.90
2023-08-07T02:34:41.910Z,9.90
2023-08-07T02:37:08.858Z,9.90
2023-08-07T02:39:37.111Z,9.90
2023-08-07T02:42:04.438Z,9.80
2023-08-07T02:44:31.416Z,9.80
2023-08-07T02:46:58.617Z,9.80
2023-08-07T02:49:26.078Z,9.80
2023-08-07T02:51:53.443Z,9.80
2023-08-07T02:54:20.403Z,9.80
2023-08-07T02:56:47.571Z,9.80
2023-08-07T02:59:14.470Z,9.70
2023-08-07T03:01:41.546Z,9.70
2023-08-07T03:04:08.573Z,9.70
2023-08-07T03:06:35.567Z,9.70
2023-08-07T03:09:02.558Z,9.60
2023-08-07T03:11:29.444Z,9.70
2023-08-07T03:13:56.403Z,9.60
2023-08-07T03:16:23.325Z,9.70
2023-08-07T03:18:50.366Z,9.60
2023-08-07T03:21:17.459Z,9.60
2023-08-07T03:23:44.617Z,9.50
2023-08-07T03:28:43.505Z,9.60
2023-08-07T03:31:10.498Z,9.60
2023-08-07T03:33:38.079Z,9.50
2023-08-07T03:36:05.838Z,9.50
2023-08-07T03:38:33.888Z,9.50
2023-08-07T03:41:00.921Z,9.60
2023-08-07T03:43:29.371Z,9.50
2023-08-07T03:46:03.101Z,9.50
2023-08-07T03:48:31.966Z,9.60
2023-08-07T03:51:11.632Z,9.50
2023-08-07T03:53:43.218Z,9.50
2023-08-07T03:56:10.162Z,9.50
2023-08-07T03:58:37.168Z,9.50
2023-08-07T04:01:04.560Z,9.50
2023-08-07T04:03:32.200Z,9.50
2023-08-07T04:06:01.730Z,9.50
2023-08-07T04:08:28.833Z,9.50
2023-08-07T04:11:03.185Z,9.50
2023-08-07T04:13:31.381Z,9.50
2023-08-07T04:15:59.184Z,9.50
2023-08-07T04:18:26.913Z,9.50
2023-08-07T04:20:57.694Z,9.50
2023-08-07T04:23:25.541Z,9.50
2023-08-07T04:25:54.100Z,9.40
2023-08-07T04:28:21.394Z,9.40
2023-08-07T04:30:54.622Z,9.40
2023-08-07T04:33:22.441Z,9.40
2023-08-07T04:35:49.673Z,9.40
2023-08-07T04:38:17.667Z,9.40
2023-08-07T04:40:48.896Z,9.40
2023-08-07T04:43:17.064Z,9.40
2023-08-07T04:45:46.318Z,9.40
2023-08-07T04:48:13.988Z,9.40
2023-08-07T04:50:41.195Z,9.40
2023-08-07T04:53:08.462Z,9.40
2023-08-07T04:55:35.537Z,9.40
2023-08-07T04:58:02.472Z,9.40
2023-08-07T05:00:30.011Z,9.40
2023-08-07T05:02:57.100Z,9.40
2023-08-07T05:05:24.811Z,9.40
2023-08-07T05:07:52.050Z,9.40
2023-08-07T05:10:19.196Z,9.40
2023-08-07T05:12:46.192Z,9.40
2023-08-07T05:15:13.281Z,9.40
2023-08-07T05:17:40.264Z,9.40
2023-08-07T05:20:07.933Z,9.40
2023-08-07T05:22:34.962Z,9.40
2023-08-07T05:25:01.950Z,9.40
2023-08-07T05:27:29.540Z,9.40
2023-08-07T05:29:56.446Z,9.40
2023-08-07T05:32:23.444Z,9.50
2023-08-07T05:34:51.685Z,9.50
2023-08-07T05:37:18.781Z,9.50
2023-08-07T05:39:46.413Z,9.50
2023-08-07T05:42:13.545Z,9.50
2023-08-07T05:44:40.428Z,9.60
2023-08-07T05:47:08.081Z,9.60
2023-08-07T05:49:34.992Z,9.60
2023-08-07T05:52:01.973Z,9.60
2023-08-07T05:54:28.914Z,9.60
2023-08-07T05:56:55.807Z,9.60
2023-08-07T05:59:22.683Z,9.60
2023-08-07T06:01:49.690Z,9.70
2023-08-07T06:04:16.629Z,9.70
2023-08-07T06:06:43.955Z,9.70
2023-08-07T06:09:10.998Z,9.70
2023-08-07T06:11:37.983Z,9.70
2023-08-07T06:14:05.005Z,9.70
2023-08-07T06:16:32.014Z,9.70
2023-08-07T06:18:58.942Z,9.70
2023-08-07T06:21:26.032Z,9.80
2023-08-07T06:23:53.083Z,9.80
2023-08-07T06:26:20.530Z,9.80
2023-08-07T06:28:47.569Z,9.80
2023-08-07T06:31:16.467Z,9.90
2023-08-07T06:33:43.536Z,9.80
2023-08-07T06:36:10.422Z,9.80
2023-08-07T06:38:37.546Z,9.80
2023-08-07T06:41:06.566Z,9.80
2023-08-07T06:43:33.587Z,9.80
2023-08-07T06:46:00.722Z,9.80
2023-08-07T06:48:27.716Z,9.80
2023-08-07T06:50:54.655Z,9.80
2023-08-07T06:53:21.665Z,9.80
2023-08-07T06:55:48.728Z,9.90
2023-08-07T06:58:15.794Z,9.90
2023-08-07T07:00:42.716Z,10.00
2023-08-07T07:03:11.145Z,10.00
2023-08-07T07:05:38.141Z,10.00
2023-08-07T07:08:05.213Z,10.10
2023-08-07T07:10:32.387Z,10.20
2023-08-07T07:12:59.286Z,10.20
2023-08-07T07:15:26.216Z,10.20
2023-08-07T07:17:53.188Z,10.20
2023-08-07T07:20:20.280Z,10.30
2023-08-07T07:22:47.441Z,10.30
2023-08-07T07:25:14.363Z,10.40
2023-08-07T07:27:42.017Z,10.50
2023-08-07T07:30:09.662Z,10.60
2023-08-07T07:32:36.735Z,10.70
2023-08-07T07:35:05.167Z,10.70
2023-08-07T07:37:32.908Z,10.80
2023-08-07T07:39:59.846Z,10.80
2023-08-07T07:42:26.897Z,10.90
2023-08-07T07:44:53.747Z,11.00
2023-08-07T07:47:21.247Z,11.10
2023-08-07T07:49:48.924Z,11.20
2023-08-07T07:52:16.221Z,11.30
2023-08-07T07:54:43.370Z,11.40
2023-08-07T07:57:10.298Z,11.40
2023-08-07T07:59:38.099Z,11.40
2023-08-07T08:02:05.437Z,11.40
2023-08-07T08:04:32.784Z,11.30
2023-08-07T08:07:00.737Z,11.30
2023-08-07T08:09:27.840Z,11.20
2023-08-07T08:11:54.743Z,11.20
2023-08-07T08:14:21.771Z,11.20
2023-08-07T08:16:48.855Z,11.20
2023-08-07T08:19:17.532Z,11.20
2023-08-07T08:21:44.754Z,11.20
2023-08-07T08:24:11.691Z,11.20
2023-08-07T08:26:38.691Z,11.20
2023-08-07T08:29:07.755Z,11.30
2023-08-07T08:31:35.395Z,11.40
2023-08-07T08:34:02.369Z,11.50
2023-08-07T08:36:29.274Z,11.60
2023-08-07T08:38:56.158Z,11.60
2023-08-07T08:41:23.869Z,11.70
2023-08-07T08:43:54.220Z,11.80
2023-08-07T08:46:24.805Z,11.80
2023-08-07T08:48:57.164Z,11.90
2023-08-07T08:51:25.961Z,12.00
2023-08-07T08:53:54.917Z,12.20
2023-08-07T08:56:23.706Z,12.30
2023-08-07T08:58:52.280Z,12.40
2023-08-07T09:01:19.973Z,12.50
2023-08-07T09:03:47.565Z,12.60
2023-08-07T09:06:15.554Z,12.80
2023-08-07T09:08:44.121Z,12.80
2023-08-07T09:11:15.627Z,12.90
2023-08-07T09:13:46.139Z,12.90
2023-08-07T09:16:13.343Z,12.90
2023-08-07T09:18:41.410Z,13.10
2023-08-07T09:21:08.769Z,13.30
2023-08-07T09:23:35.705Z,13.40
2023-08-07T09:26:06.383Z,13.50
2023-08-07T09:28:34.208Z,13.60
2023-08-07T09:31:03.291Z,13.60
2023-08-07T09:33:31.669Z,13.60
2023-08-07T09:35:59.983Z,13.50
2023-08-07T09:38:30.785Z,13.60
2023-08-07T09:41:01.850Z,13.60
2023-08-07T09:43:29.736Z,13.60
2023-08-07T09:46:07.403Z,13.60
2023-08-07T09:48:41.421Z,13.50
2023-08-07T09:51:08.983Z,13.40
2023-08-07T09:53:36.182Z,13.20
2023-08-07T09:56:03.895Z,13.10
2023-08-07T09:58:31.202Z,13.10
2023-08-07T10:01:07.219Z,13.30
2023-08-07T10:03:34.580Z,13.50
2023-08-07T10:06:01.831Z,13.70
2023-08-07T10:08:29.790Z,13.90
2023-08-07T10:10:57.317Z,14.00
2023-08-07T10:13:34.444Z,14.00
2023-08-07T10:16:07.745Z,14.20
2023-08-07T10:18:37.872Z,14.20
2023-08-07T10:21:07.437Z,14.30
2023-08-07T10:23:39.561Z,14.50
2023-08-07T10:26:09.796Z,14.60
2023-08-07T10:28:39.836Z,15.10
2023-08-07T10:31:08.747Z,16.00
2023-08-07T10:33:36.176Z,16.30
2023-08-07T10:36:10.137Z,16.50
2023-08-07T10:38:37.402Z,16.30
2023-08-07T10:41:09.471Z,16.40
2023-08-07T10:43:43.218Z,16.40
2023-08-07T10:46:11.520Z,16.70
2023-08-07T10:48:44.110Z,16.80
2023-08-07T10:51:18.088Z,16.80
2023-08-07T10:53:47.389Z,16.60
2023-08-07T10:56:19.842Z,16.60
2023-08-07T10:58:55.359Z,16.70
2023-08-07T11:01:28.285Z,16.80
2023-08-07T11:03:58.625Z,17.20
2023-08-07T11:06:28.956Z,17.70
2023-08-07T11:08:55.985Z,17.90
2023-08-07T11:11:22.895Z,18.10
2023-08-07T11:13:50.222Z,18.10
2023-08-07T11:16:17.969Z,18.20
2023-08-07T11:18:45.113Z,18.30
2023-08-07T11:21:12.971Z,18.30
2023-08-07T11:23:41.487Z,18.50
2023-08-07T11:26:10.396Z,18.80
2023-08-07T11:28:37.375Z,18.80
2023-08-07T11:31:04.609Z,18.90
2023-08-07T11:33:31.961Z,18.90
2023-08-07T11:35:59.251Z,18.80
2023-08-07T11:38:32.126Z,18.60
2023-08-07T11:41:07.412Z,18.20
2023-08-07T11:43:35.385Z,18.10
2023-08-07T11:46:04.181Z,18.10
2023-08-07T11:48:33.270Z,18.10
2023-08-07T11:51:01.410Z,18.00
2023-08-07T11:53:30.490Z,17.80
2023-08-07T11:55:58.315Z,17.40
2023-08-07T11:58:34.390Z,17.20
2023-08-07T12:01:10.947Z,16.90
2023-08-07T12:03:40.109Z,16.60
2023-08-07T12:06:08.962Z,16.30
2023-08-07T12:08:41.748Z,16.00
2023-08-07T12:11:11.731Z,15.80
2023-08-07T12:13:47.932Z,15.70
2023-08-07T12:16:19.600Z,15.70
2023-08-07T12:18:48.288Z,15.70
2023-08-07T12:21:18.223Z,15.60
2023-08-07T12:23:45.789Z,15.50
2023-08-07T12:26:12.862Z,15.40
2023-08-07T12:28:39.813Z,15.40
2023-08-07T12:31:08.172Z,15.40
2023-08-07T12:33:35.421Z,15.40
2023-08-07T12:36:03.258Z,15.20
2023-08-07T12:38:30.412Z,15.00
2023-08-07T12:40:58.430Z,14.90
2023-08-07T12:43:26.455Z,14.70
2023-08-07T12:45:54.517Z,14.60
2023-08-07T12:48:41.061Z,14.50
2023-08-07T12:51:08.013Z,14.40
2023-08-07T12:53:34.962Z,14.40
2023-08-07T12:56:02.901Z,14.50
2023-08-07T12:58:30.771Z,14.70
2023-08-07T13:00:58.226Z,15.00
2023-08-07T13:03:25.226Z,15.20
2023-08-07T13:05:52.191Z,15.30
2023-08-07T13:08:19.370Z,15.40
2023-08-07T13:10:49.718Z,15.60
2023-08-07T13:13:17.292Z,15.50
2023-08-07T13:15:44.261Z,15.50
2023-08-07T13:18:11.938Z,15.60
2023-08-07T13:20:38.923Z,15.50
2023-08-07T13:23:07.553Z,15.40
2023-08-07T13:25:34.815Z,15.40
2023-08-07T13:28:05.348Z,15.30
2023-08-07T13:30:35.979Z,15.20
2023-08-07T13:33:07.276Z,15.20
2023-08-07T13:35:34.558Z,14.90
2023-08-07T13:38:01.561Z,14.80
2023-08-07T13:40:28.479Z,14.60
2023-08-07T13:42:55.404Z,14.40
2023-08-07T13:45:22.389Z,14.30
2023-08-07T13:47:49.364Z,14.20
2023-08-07T13:50:16.622Z,14.10
2023-08-07T13:52:43.593Z,14.00
2023-08-07T13:55:10.872Z,13.80
2023-08-07T13:57:38.069Z,13.80
2023-08-07T14:00:05.792Z,13.70
2023-08-07T14:02:34.512Z,13.70
2023-08-07T14:05:01.582Z,13.70
2023-08-07T14:07:28.623Z,13.70
2023-08-07T14:09:55.636Z,13.80
2023-08-07T14:12:22.516Z,13.90
2023-08-07T14:14:49.471Z,14.00
2023-08-07T14:17:16.372Z,14.10
2023-08-07T14:19:43.602Z,14.10
2023-08-07T14:22:11.180Z,14.20
2023-08-07T14:24:38.075Z,14.30
2023-08-07T14:27:05.419Z,14.30
2023-08-07T14:29:32.344Z,14.40
2023-08-07T14:31:59.211Z,14.50
2023-08-07T14:34:26.214Z,14.60
2023-08-07T14:36:55.407Z,14.70
2023-08-07T14:39:24.439Z,14.80
2023-08-07T14:41:53.272Z,14.80
2023-08-07T14:44:20.385Z,14.80
2023-08-07T14:46:47.364Z,14.80
2023-08-07T14:49:14.395Z,14.80
2023-08-07T14:51:41.391Z,14.80
2023-08-07T14:54:08.384Z,14.90
2023-08-07T14:56:35.293Z,15.00
2023-08-07T14:59:02.376Z,15.20
2023-08-07T15:01:29.334Z,15.20
2023-08-07T15:03:56.518Z,15.30
2023-08-07T15:06:23.710Z,15.40
2023-08-07T15:08:50.683Z,15.60
2023-08-07T15:11:18.100Z,15.70
2023-08-07T15:13:45.254Z,15.90
2023-08-07T15:16:12.290Z,15.90
2023-08-07T15:18:41.608Z,16.00
2023-08-07T15:21:08.856Z,16.00
2023-08-07T15:23:35.848Z,15.90
2023-08-07T15:26:02.850Z,15.80
2023-08-07T15:28:29.861Z,15.80
2023-08-07T15:30:56.795Z,15.60
2023-08-07T15:33:25.028Z,15.50
2023-08-07T15:35:55.547Z,15.40
2023-08-07T15:38:23.146Z,15.30
2023-08-07T15:40:50.313Z,15.20
2023-08-07T15:43:17.361Z,15.10
2023-08-07T15:45:48.237Z,15.10
2023-08-07T15:48:16.266Z,15.10
2023-08-07T15:50:43.168Z,15.10
2023-08-07T15:53:10.096Z,15.10
2023-08-07T15:55:37.067Z,15.00
2023-08-07T15:58:05.448Z,15.10
2023-08-07T16:00:35.182Z,15.20
2023-08-07T16:03:03.620Z,15.30
2023-08-07T16:05:30.577Z,15.40
2023-08-07T16:07:57.647Z,15.50
2023-08-07T16:10:26.328Z,15.50
2023-08-07T16:12:54.797Z,15.50
2023-08-07T16:15:22.374Z,15.40
2023-08-07T16:17:50.113Z,15.40
2023-08-07T16:20:17.340Z,15.30
2023-08-07T16:22:44.255Z,15.30
2023-08-07T16:25:11.683Z,15.20
2023-08-07T16:27:39.592Z,15.20
2023-08-07T16:30:07.383Z,15.20
2023-08-07T16:32:36.332Z,15.20
2023-08-07T16:35:04.092Z,15.30
2023-08-07T16:37:32.234Z,15.40
2023-08-07T16:39:59.604Z,15.40
2023-08-07T16:42:26.786Z,15.30
2023-08-07T16:44:54.083Z,15.20
2023-08-07T16:47:21.413Z,15.10
2023-08-07T16:49:51.843Z,15.00
2023-08-07T16:52:19.076Z,14.90
2023-08-07T16:54:49.395Z,14.70
2023-08-07T16:57:16.892Z,14.60
2023-08-07T16:59:43.825Z,14.60
2023-08-07T17:02:11.009Z,14.60
2023-08-07T17:04:38.976Z,14.60
2023-08-07T17:07:06.896Z,14.60
2023-08-07T17:09:33.976Z,14.60
2023-08-07T17:12:01.045Z,14.60
2023-08-07T17:14:27.971Z,14.50
2023-08-07T17:16:55.131Z,14.40
2023-08-07T17:19:22.723Z,14.40
2023-08-07T17:21:50.294Z,14.40
2023-08-07T17:24:17.222Z,14.50
2023-08-07T17:26:44.274Z,14.60
2023-08-07T17:29:11.239Z,14.70
2023-08-07T17:31:38.208Z,14.80
2023-08-07T17:34:05.203Z,14.80
2023-08-07T17:36:32.196Z,14.80
2023-08-07T17:39:00.067Z,14.90
2023-08-07T17:41:28.457Z,14.90
2023-08-07T17:43:55.620Z,14.90
2023-08-07T17:46:22.708Z,14.80
2023-08-07T17:48:49.719Z,14.80
2023-08-07T17:51:16.627Z,14.80
2023-08-07T17:53:43.617Z,14.80
2023-08-07T17:56:10.555Z,14.70
2023-08-07T17:58:37.492Z,14.80
2023-08-07T18:01:04.799Z,14.70
2023-08-07T18:03:31.916Z,14.70
2023-08-07T18:05:58.823Z,14.60
2023-08-07T18:08:25.793Z,14.50
2023-08-07T18:10:52.759Z,14.40
2023-08-07T18:13:19.667Z,14.40
2023-08-07T18:15:46.560Z,14.40
2023-08-07T18:18:13.501Z,14.30
2023-08-07T18:20:40.459Z,14.20
2023-08-07T18:23:07.420Z,14.20
2023-08-07T18:25:34.592Z,14.10
2023-08-07T18:28:01.584Z,14.10
2023-08-07T18:30:28.632Z,14.10
2023-08-07T18:32:55.583Z,14.00
2023-08-07T18:35:22.620Z,13.90
2023-08-07T18:37:49.644Z,13.90
2023-08-07T18:40:16.585Z,13.80
2023-08-07T18:42:44.317Z,13.70
2023-08-07T18:45:11.457Z,13.70
2023-08-07T18:47:38.655Z,13.60
2023-08-07T18:50:06.380Z,13.50
2023-08-07T18:52:33.339Z,13.50
2023-08-07T18:55:00.349Z,13.40
2023-08-07T18:57:27.321Z,13.30
2023-08-07T18:59:54.350Z,13.30
2023-08-07T19:02:21.394Z,13.20
2023-08-07T19:04:48.470Z,13.10
2023-08-07T19:07:15.540Z,13.00
2023-08-07T19:09:43.033Z,13.00
2023-08-07T19:12:10.276Z,12.90
2023-08-07T19:14:37.312Z,12.80
2023-08-07T19:17:08.255Z,12.70
2023-08-07T19:19:35.956Z,12.70
2023-08-07T19:22:04.613Z,12.70
2023-08-07T19:24:31.680Z,12.60
2023-08-07T19:26:58.984Z,12.60
2023-08-07T19:29:26.238Z,12.50
2023-08-07T19:31:53.265Z,12.50
2023-08-07T19:34:20.223Z,12.50
2023-08-07T19:36:50.577Z,12.40
2023-08-07T19:39:18.514Z,12.40
2023-08-07T19:41:45.490Z,12.40
2023-08-07T19:44:12.399Z,12.30
2023-08-07T19:46:39.356Z,12.30
2023-08-07T19:49:06.303Z,12.30
2023-08-07T19:51:33.443Z,12.20
2023-08-07T19:54:02.448Z,12.20
2023-08-07T19:56:33.341Z,12.20
2023-08-07T19:59:06.089Z,12.10
2023-08-07T20:01:33.745Z,12.10
2023-08-07T20:04:01.133Z,12.00
2023-08-07T20:06:36.160Z,12.00
2023-08-07T20:09:03.750Z,11.90
2023-08-07T20:11:37.426Z,11.80
2023-08-07T20:14:04.646Z,11.80
2023-08-07T20:16:33.122Z,11.80
2023-08-07T20:19:00.348Z,11.80
2023-08-07T20:21:27.599Z,11.70
2023-08-07T20:23:54.866Z,11.70
2023-08-07T20:26:22.699Z,11.70
2023-08-07T20:28:49.789Z,11.60
2023-08-07T20:31:16.853Z,11.50
2023-08-07T20:33:43.753Z,11.50
2023-08-07T20:36:10.690Z,11.50
2023-08-07T20:38:37.658Z,11.40
2023-08-07T20:41:04.561Z,11.30
2023-08-07T20:43:31.539Z,11.30
2023-08-07T20:45:58.387Z,11.20
2023-08-07T20:48:25.328Z,11.20
2023-08-07T20:50:52.472Z,11.10
2023-08-07T20:53:19.336Z,11.10
2023-08-07T20:55:46.241Z,11.10
2023-08-07T20:58:13.145Z,11.00
2023-08-07T21:00:40.046Z,11.00
2023-08-07T21:03:06.992Z,10.90
2023-08-07T21:05:33.867Z,10.90
2023-08-07T21:08:00.858Z,10.90
2023-08-07T21:10:27.837Z,10.90
2023-08-07T21:12:54.740Z,10.80
2023-08-07T21:15:21.811Z,10.80
2023-08-07T21:17:48.738Z,10.80
2023-08-07T21:20:15.712Z,10.70
2023-08-07T21:22:42.662Z,10.70
2023-08-07T21:25:09.684Z,10.70
2023-08-07T21:27:37.060Z,10.70
2023-08-07T21:30:04.327Z,10.60
2023-08-07T21:32:31.257Z,10.70
2023-08-07T21:34:58.173Z,10.70
2023-08-07T21:37:34.731Z,10.70
2023-08-07T21:40:02.005Z,10.70
2023-08-07T21:42:29.621Z,10.70
2023-08-07T21:44:56.640Z,10.80
2023-08-07T21:47:23.603Z,10.90
2023-08-07T21:49:50.737Z,10.90
2023-08-07T21:52:17.596Z,10.90
2023-08-07T21:54:44.603Z,10.90
2023-08-07T21:57:11.477Z,10.90
2023-08-07T21:59:38.413Z,10.90
2023-08-07T22:02:05.589Z,10.90
2023-08-07T22:04:32.506Z,10.90
2023-08-07T22:06:59.494Z,10.80
2023-08-07T22:09:26.519Z,10.80
2023-08-07T22:11:53.414Z,10.80
2023-08-07T22:14:20.367Z,10.80
2023-08-07T22:16:48.225Z,10.80
2023-08-07T22:19:15.131Z,10.80
2023-08-07T22:21:42.054Z,10.80
2023-08-07T22:24:09.030Z,10.90
2023-08-07T22:26:35.863Z,10.90
2023-08-07T22:29:02.764Z,10.90
2023-08-07T22:31:29.701Z,11.00
2023-08-07T22:33:56.616Z,11.00
2023-08-07T22:36:23.796Z,11.10
2023-08-07T22:38:50.863Z,11.10
2023-08-07T22:41:17.751Z,11.10
2023-08-07T22:43:44.690Z,11.20
2023-08-07T22:46:11.674Z,11.20
2023-08-07T22:48:38.594Z,11.30
2023-08-07T22:51:07.060Z,11.30
2023-08-07T22:53:34.048Z,11.40
2023-08-07T22:56:01.262Z,11.40
2023-08-07T22:58:28.192Z,11.40
2023-08-07T23:00:55.147Z,11.40
2023-08-07T23:03:22.333Z,11.40
2023-08-07T23:05:49.399Z,11.40
2023-08-07T23:08:16.334Z,11.40
2023-08-07T23:10:43.321Z,11.40
2023-08-07T23:13:10.274Z,11.40
2023-08-07T23:15:38.676Z,11.30
2023-08-07T23:18:06.178Z,11.30
2023-08-07T23:20:34.124Z,11.20
2023-08-07T23:23:01.076Z,11.20
2023-08-07T23:25:28.056Z,11.20
2023-08-07T23:27:55.024Z,11.20
2023-08-07T23:30:21.983Z,11.20
2023-08-07T23:32:48.980Z,11.10
2023-08-07T23:35:16.030Z,11.10
2023-08-07T23:37:43.148Z,11.10
2023-08-07T23:40:10.703Z,11.10
2023-08-07T23:42:37.661Z,11.10
2023-08-07T23:45:05.365Z,11.10
2023-08-07T23:47:32.325Z,11.00
2023-08-07T23:49:59.313Z,11.00
2023-08-07T23:52:26.225Z,11.00
2023-08-07T23:54:53.214Z,11.00
2023-08-07T23:57:20.165Z,11.00
2023-08-07T23:59:47.186Z,11.00
